createdAt,value
2022-10-11T00:01:47.276Z,8.58
2022-10-11T00:04:14.095Z,8.56
2022-10-11T00:06:43.494Z,8.54
2022-10-11T00:09:16.151Z,8.54
2022-10-11T00:11:42.972Z,8.52
2022-10-11T00:14:09.693Z,8.53
2022-10-11T00:16:38.667Z,8.52
2022-10-11T00:19:05.313Z,8.49
2022-10-11T00:21:32.126Z,8.49
2022-10-11T00:23:58.834Z,8.49
2022-10-11T00:26:25.478Z,8.49
2022-10-11T00:28:53.041Z,8.46
2022-10-11T00:31:19.857Z,8.43
2022-10-11T00:33:46.617Z,8.46
2022-10-11T00:36:15.838Z,8.42
2022-10-11T00:38:45.723Z,8.38
2022-10-11T00:41:12.727Z,8.37
2022-10-11T00:43:40.018Z,8.36
2022-10-11T00:46:26.091Z,8.32
2022-10-11T00:49:07.294Z,8.30
2022-10-11T00:51:58.225Z,8.25
2022-10-11T00:54:28.738Z,8.24
2022-10-11T00:57:02.586Z,8.22
2022-10-11T00:59:34.782Z,8.22
2022-10-11T01:02:01.563Z,8.22
2022-10-11T01:04:28.680Z,8.22
2022-10-11T01:06:55.881Z,8.23
2022-10-11T01:09:22.598Z,8.25
2022-10-11T01:11:52.241Z,8.21
2022-10-11T01:14:33.949Z,8.19
2022-10-11T01:17:08.127Z,8.21
2022-10-11T01:20:05.328Z,8.21
2022-10-11T01:22:50.692Z,8.22
2022-10-11T01:25:34.490Z,8.27
2022-10-11T01:28:28.247Z,8.33
2022-10-11T01:31:01.455Z,8.32
2022-10-11T01:33:40.449Z,8.32
2022-10-11T01:36:32.733Z,8.32
2022-10-11T01:39:02.291Z,8.29
2022-10-11T01:41:35.081Z,8.29
2022-10-11T01:44:02.598Z,8.27
2022-10-11T01:46:30.586Z,8.27
2022-10-11T01:49:00.828Z,8.30
2022-10-11T01:51:34.696Z,8.32
2022-10-11T01:54:24.935Z,8.29
2022-10-11T01:57:03.696Z,8.26
2022-10-11T01:59:55.978Z,8.31
2022-10-11T02:02:43.691Z,8.27
2022-10-11T02:05:20.606Z,8.24
2022-10-11T02:07:58.662Z,8.21
2022-10-11T02:10:45.049Z,8.19
2022-10-11T02:13:35.444Z,8.17
2022-10-11T02:16:07.099Z,8.14
2022-10-11T02:18:38.073Z,8.15
2022-10-11T02:21:08.827Z,8.16
2022-10-11T02:23:42.013Z,8.19
2022-10-11T02:26:12.252Z,8.20
2022-10-11T02:28:42.663Z,8.23
2022-10-11T02:31:11.992Z,8.30
2022-10-11T02:33:58.967Z,8.26
2022-10-11T02:36:31.937Z,8.26
2022-10-11T02:39:03.895Z,8.23
2022-10-11T02:41:36.132Z,8.27
2022-10-11T02:44:09.569Z,8.28
2022-10-11T02:46:38.016Z,8.31
2022-10-11T02:49:04.930Z,8.28
2022-10-11T02:51:31.874Z,8.28
2022-10-11T02:53:58.647Z,8.29
2022-10-11T02:56:25.395Z,8.29
2022-10-11T02:58:52.029Z,8.29
2022-10-11T03:01:18.739Z,8.29
2022-10-11T03:03:45.413Z,8.40
2022-10-11T03:06:12.004Z,8.37
2022-10-11T03:08:38.790Z,8.37
2022-10-11T03:11:05.426Z,8.46
2022-10-11T03:13:32.136Z,8.57
2022-10-11T03:16:03.198Z,8.52
2022-10-11T03:18:31.166Z,8.51
2022-10-11T03:20:57.808Z,8.52
2022-10-11T03:23:24.403Z,8.52
2022-10-11T03:25:52.215Z,8.53
2022-10-11T03:28:19.479Z,8.52
2022-10-11T03:30:50.487Z,8.51
2022-10-11T03:33:17.545Z,8.48
2022-10-11T03:35:48.544Z,8.48
2022-10-11T03:38:18.761Z,8.47
2022-10-11T03:40:45.630Z,8.48
2022-10-11T03:43:12.723Z,8.49
2022-10-11T03:45:42.423Z,8.52
2022-10-11T03:48:09.863Z,8.56
2022-10-11T03:50:37.218Z,8.59
2022-10-11T03:53:05.507Z,8.59
2022-10-11T03:55:32.352Z,8.61
2022-10-11T03:57:58.964Z,8.66
2022-10-11T04:00:25.615Z,8.67
2022-10-11T04:02:52.262Z,8.67
2022-10-11T04:05:18.908Z,8.72
2022-10-11T04:07:45.492Z,8.79
2022-10-11T04:10:12.166Z,8.86
2022-10-11T04:12:39.310Z,8.90
2022-10-11T04:15:07.522Z,8.93
2022-10-11T04:17:34.475Z,8.95
2022-10-11T04:20:01.105Z,8.97
2022-10-11T04:22:27.733Z,9.00
2022-10-11T04:24:54.386Z,8.99
2022-10-11T04:27:21.204Z,9.01
2022-10-11T04:29:47.971Z,8.99
2022-10-11T04:32:14.959Z,9.01
2022-10-11T04:34:42.099Z,8.99
2022-10-11T04:37:08.739Z,8.99
2022-10-11T04:39:35.402Z,8.99
2022-10-11T04:42:02.037Z,9.00
2022-10-11T04:44:28.724Z,9.01
2022-10-11T04:46:55.389Z,9.03
2022-10-11T04:49:22.272Z,9.05
2022-10-11T04:51:48.965Z,9.09
2022-10-11T04:54:16.089Z,9.06
2022-10-11T04:56:42.767Z,9.06
2022-10-11T04:59:09.583Z,9.06
2022-10-11T05:01:36.362Z,8.99
2022-10-11T05:04:03.408Z,8.96
2022-10-11T05:06:30.198Z,8.97
2022-10-11T05:08:56.878Z,8.99
2022-10-11T05:11:23.533Z,9.00
2022-10-11T05:13:50.298Z,9.05
2022-10-11T05:16:17.522Z,9.08
2022-10-11T05:18:44.684Z,9.08
2022-10-11T05:21:31.718Z,9.12
2022-10-11T05:23:58.609Z,9.09
2022-10-11T05:26:27.807Z,9.10
2022-10-11T05:28:54.801Z,9.10
2022-10-11T05:31:21.896Z,9.10
2022-10-11T05:33:48.937Z,9.09
2022-10-11T05:36:15.707Z,9.08
2022-10-11T05:38:42.469Z,9.13
2022-10-11T05:41:10.429Z,9.12
2022-10-11T05:43:37.248Z,9.11
2022-10-11T05:46:04.242Z,9.10
2022-10-11T05:48:31.130Z,9.04
2022-10-11T05:51:03.230Z,9.01
2022-10-11T05:53:29.932Z,9.01
2022-10-11T05:55:56.710Z,9.07
2022-10-11T05:58:23.608Z,9.09
2022-10-11T06:00:50.285Z,9.05
2022-10-11T06:03:17.569Z,9.09
2022-10-11T06:05:44.242Z,9.13
2022-10-11T06:08:11.171Z,9.14
2022-10-11T06:10:39.058Z,9.15
2022-10-11T06:13:06.648Z,9.22
2022-10-11T06:15:34.409Z,9.25
2022-10-11T06:18:01.165Z,9.32
2022-10-11T06:20:27.908Z,9.37
2022-10-11T06:22:54.678Z,9.39
2022-10-11T06:25:21.316Z,9.39
2022-10-11T06:27:48.011Z,9.40
2022-10-11T06:30:15.303Z,9.50
2022-10-11T06:32:41.904Z,9.59
2022-10-11T06:35:08.901Z,9.56
2022-10-11T06:37:36.123Z,9.60
2022-10-11T06:40:02.850Z,9.72
2022-10-11T06:42:29.469Z,9.78
2022-10-11T06:44:56.086Z,9.91
2022-10-11T06:47:22.882Z,10.06
2022-10-11T06:49:49.565Z,10.24
2022-10-11T06:52:16.211Z,10.34
2022-10-11T06:54:45.085Z,10.54
2022-10-11T06:57:12.116Z,10.94
2022-10-11T06:59:39.087Z,11.42
2022-10-11T07:02:05.751Z,11.94
2022-10-11T07:04:33.936Z,12.28
2022-10-11T07:07:00.830Z,12.53
2022-10-11T07:09:27.413Z,12.70
2022-10-11T07:11:54.100Z,12.89
2022-10-11T07:14:20.799Z,13.30
2022-10-11T07:16:47.432Z,13.80
2022-10-11T07:19:14.027Z,14.09
2022-10-11T07:21:40.729Z,14.16
2022-10-11T07:24:07.694Z,14.11
2022-10-11T07:26:38.265Z,13.95
2022-10-11T07:29:07.194Z,13.93
2022-10-11T07:31:33.940Z,13.95
2022-10-11T07:34:00.626Z,13.94
2022-10-11T07:36:27.304Z,13.91
2022-10-11T07:38:54.163Z,13.82
2022-10-11T07:41:21.192Z,13.79
2022-10-11T07:43:49.665Z,13.75
2022-10-11T07:46:18.088Z,13.79
2022-10-11T07:48:44.868Z,13.75
2022-10-11T07:51:17.892Z,13.67
2022-10-11T07:53:55.507Z,13.61
2022-10-11T07:56:27.905Z,13.57
2022-10-11T07:58:59.963Z,13.59
2022-10-11T08:01:28.224Z,13.52
2022-10-11T08:03:54.973Z,13.49
2022-10-11T08:06:24.596Z,13.54
2022-10-11T08:08:51.298Z,13.70
2022-10-11T08:11:29.857Z,14.10
2022-10-11T08:13:58.046Z,14.79
2022-10-11T08:16:25.486Z,15.17
2022-10-11T08:18:52.113Z,15.70
2022-10-11T08:21:19.215Z,16.04
2022-10-11T08:23:46.170Z,16.43
2022-10-11T08:26:12.907Z,16.70
2022-10-11T08:28:39.612Z,16.89
2022-10-11T08:31:06.772Z,17.29
2022-10-11T08:33:33.457Z,17.43
2022-10-11T08:36:05.826Z,17.37
2022-10-11T08:38:33.294Z,17.32
2022-10-11T08:41:00.997Z,17.15
2022-10-11T08:43:56.582Z,17.27
2022-10-11T08:46:26.755Z,17.34
2022-10-11T08:48:54.442Z,17.21
2022-10-11T08:51:27.746Z,17.13
2022-10-11T08:54:03.512Z,17.10
2022-10-11T08:56:38.863Z,17.11
2022-10-11T08:59:11.323Z,17.02
2022-10-11T09:01:46.530Z,16.84
2022-10-11T09:04:17.919Z,16.78
2022-10-11T09:06:53.814Z,16.81
2022-10-11T09:09:44.153Z,16.70
2022-10-11T09:12:19.823Z,16.59
2022-10-11T09:15:03.734Z,16.63
2022-10-11T09:18:06.886Z,16.64
2022-10-11T09:21:08.353Z,16.65
2022-10-11T09:23:53.571Z,16.58
2022-10-11T09:26:20.078Z,16.60
2022-10-11T09:29:16.075Z,16.71
2022-10-11T09:31:48.403Z,16.58
2022-10-11T09:34:15.771Z,16.60
2022-10-11T09:36:55.311Z,16.73
2022-10-11T09:39:33.171Z,16.95
2022-10-11T09:42:08.725Z,16.99
2022-10-11T09:44:41.496Z,17.03
2022-10-11T09:47:15.491Z,17.20
2022-10-11T09:49:56.731Z,17.36
2022-10-11T09:52:25.200Z,17.55
2022-10-11T09:54:57.212Z,17.85
2022-10-11T09:57:39.581Z,18.06
2022-10-11T10:00:06.353Z,18.25
2022-10-11T10:02:48.989Z,18.52
2022-10-11T10:05:24.035Z,18.63
2022-10-11T10:08:05.112Z,18.74
2022-10-11T10:10:38.652Z,18.81
2022-10-11T10:13:16.266Z,18.89
2022-10-11T10:15:46.574Z,18.98
2022-10-11T10:18:30.961Z,19.11
2022-10-11T10:20:59.974Z,19.29
2022-10-11T10:23:29.815Z,19.40
2022-10-11T10:26:22.284Z,19.55
2022-10-11T10:28:56.665Z,19.54
2022-10-11T10:31:49.514Z,19.58
2022-10-11T10:34:30.163Z,19.52
2022-10-11T10:37:19.631Z,19.53
2022-10-11T10:39:55.020Z,19.39
2022-10-11T10:42:21.934Z,19.57
2022-10-11T10:44:57.048Z,19.74
2022-10-11T10:47:52.668Z,19.22
2022-10-11T10:50:26.579Z,19.38
2022-10-11T10:53:17.469Z,19.56
2022-10-11T10:55:47.433Z,19.67
2022-10-11T10:58:32.819Z,19.62
2022-10-11T11:01:22.707Z,19.55
2022-10-11T11:03:52.506Z,19.60
2022-10-11T11:06:29.718Z,19.69
2022-10-11T11:09:03.918Z,19.50
2022-10-11T11:11:45.054Z,19.48
2022-10-11T11:14:18.794Z,19.27
2022-10-11T11:17:07.910Z,19.31
2022-10-11T11:19:56.134Z,19.04
2022-10-11T11:22:32.487Z,19.07
2022-10-11T11:25:05.074Z,19.07
2022-10-11T11:27:44.324Z,18.99
2022-10-11T11:30:34.116Z,18.92
2022-10-11T11:33:00.678Z,18.96
2022-10-11T11:35:39.828Z,18.94
2022-10-11T11:38:34.048Z,18.90
2022-10-11T11:41:05.351Z,18.76
2022-10-11T11:43:39.989Z,18.80
2022-10-11T11:46:16.262Z,18.82
2022-10-11T11:48:44.065Z,18.76
2022-10-11T11:51:20.637Z,18.67
2022-10-11T11:54:09.344Z,18.59
2022-10-11T11:56:42.113Z,18.50
2022-10-11T11:59:14.464Z,18.47
2022-10-11T12:01:57.901Z,18.45
2022-10-11T12:04:36.039Z,18.39
2022-10-11T12:07:24.974Z,18.37
2022-10-11T12:09:55.054Z,18.42
2022-10-11T12:12:34.392Z,18.33
2022-10-11T12:15:10.095Z,18.26
2022-10-11T12:17:57.371Z,18.16
2022-10-11T12:20:40.965Z,18.07
2022-10-11T12:23:29.427Z,17.95
2022-10-11T12:26:28.105Z,18.13
2022-10-11T12:29:27.461Z,18.01
2022-10-11T12:32:01.363Z,17.95
2022-10-11T12:34:42.585Z,17.85
2022-10-11T12:37:32.386Z,17.76
2022-10-11T12:40:00.448Z,17.70
2022-10-11T12:42:33.820Z,17.65
2022-10-11T12:45:13.048Z,17.58
2022-10-11T12:47:53.056Z,17.70
2022-10-11T12:50:42.757Z,17.58
2022-10-11T12:53:21.888Z,17.62
2022-10-11T12:55:48.532Z,17.56
2022-10-11T12:58:17.830Z,17.51
2022-10-11T13:01:05.076Z,17.39
2022-10-11T13:03:50.878Z,17.33
2022-10-11T13:06:25.126Z,17.31
2022-10-11T13:09:02.000Z,17.19
2022-10-11T13:11:32.766Z,17.12
2022-10-11T13:14:10.175Z,17.08
2022-10-11T13:16:46.317Z,17.15
2022-10-11T13:19:14.768Z,17.10
2022-10-11T13:21:42.014Z,17.06
2022-10-11T13:24:19.405Z,16.93
2022-10-11T13:26:49.086Z,16.75
2022-10-11T13:29:39.495Z,16.64
2022-10-11T13:32:12.589Z,16.54
2022-10-11T13:34:41.786Z,16.51
2022-10-11T13:37:16.465Z,16.51
2022-10-11T13:39:43.242Z,16.50
2022-10-11T13:42:14.148Z,16.61
2022-10-11T13:44:42.575Z,16.59
2022-10-11T13:47:18.715Z,16.56
2022-10-11T13:49:50.465Z,16.43
2022-10-11T13:52:22.055Z,16.36
2022-10-11T13:55:03.922Z,16.33
2022-10-11T13:57:49.496Z,16.40
2022-10-11T14:00:16.536Z,16.45
2022-10-11T14:02:58.159Z,16.54
2022-10-11T14:05:39.047Z,16.52
2022-10-11T14:08:26.177Z,16.53
2022-10-11T14:10:57.231Z,16.38
2022-10-11T14:13:30.185Z,16.38
2022-10-11T14:16:06.214Z,16.42
2022-10-11T14:19:03.132Z,16.33
2022-10-11T14:21:51.300Z,16.37
2022-10-11T14:24:19.183Z,16.48
2022-10-11T14:26:51.851Z,16.39
2022-10-11T14:29:28.599Z,16.33
2022-10-11T14:32:05.063Z,16.40
2022-10-11T14:34:32.878Z,16.40
2022-10-11T14:36:59.539Z,16.26
2022-10-11T14:39:28.207Z,16.19
2022-10-11T14:41:54.995Z,16.09
2022-10-11T14:44:22.434Z,16.10
2022-10-11T14:46:54.052Z,16.02
2022-10-11T14:49:25.283Z,15.92
2022-10-11T14:51:54.074Z,15.71
2022-10-11T14:54:23.576Z,15.61
2022-10-11T14:56:52.176Z,15.55
2022-10-11T14:59:22.220Z,15.48
2022-10-11T15:01:53.955Z,15.44
2022-10-11T15:04:26.407Z,15.45
2022-10-11T15:06:54.912Z,15.57
2022-10-11T15:09:22.574Z,15.48
2022-10-11T15:11:50.487Z,15.54
2022-10-11T15:14:17.509Z,15.54
2022-10-11T15:16:44.541Z,15.51
2022-10-11T15:19:22.972Z,15.50
2022-10-11T15:21:49.805Z,15.53
2022-10-11T15:24:19.991Z,15.61
2022-10-11T15:26:47.716Z,15.59
2022-10-11T15:29:17.619Z,15.63
2022-10-11T15:31:45.878Z,15.59
2022-10-11T15:34:12.581Z,15.57
2022-10-11T15:36:39.268Z,15.55
2022-10-11T15:39:23.530Z,15.51
2022-10-11T15:41:50.343Z,15.49
2022-10-11T15:44:17.039Z,15.50
2022-10-11T15:46:43.922Z,15.51
2022-10-11T15:49:14.334Z,15.43
2022-10-11T15:51:41.271Z,15.41
2022-10-11T15:54:08.053Z,15.35
2022-10-11T15:56:34.788Z,15.25
2022-10-11T15:59:02.074Z,15.18
2022-10-11T16:01:28.779Z,15.18
2022-10-11T16:03:55.529Z,15.20
2022-10-11T16:06:22.177Z,15.19
2022-10-11T16:08:48.867Z,15.19
2022-10-11T16:11:15.856Z,15.20
2022-10-11T16:13:42.534Z,15.15
2022-10-11T16:16:11.310Z,15.10
2022-10-11T16:18:38.237Z,14.99
2022-10-11T16:21:11.116Z,14.92
2022-10-11T16:23:38.805Z,14.97
2022-10-11T16:26:08.189Z,14.85
2022-10-11T16:28:35.784Z,14.65
2022-10-11T16:31:14.795Z,14.59
2022-10-11T16:33:47.887Z,14.44
2022-10-11T16:36:31.846Z,14.24
2022-10-11T16:38:59.523Z,14.10
2022-10-11T16:41:26.195Z,14.09
2022-10-11T16:43:55.055Z,14.00
2022-10-11T16:46:22.596Z,13.91
2022-10-11T16:48:49.377Z,13.89
2022-10-11T16:51:16.050Z,13.79
2022-10-11T16:53:42.672Z,13.74
2022-10-11T16:56:11.483Z,13.68
2022-10-11T16:58:38.273Z,13.61
2022-10-11T17:01:10.293Z,13.44
2022-10-11T17:03:37.668Z,13.38
2022-10-11T17:06:05.578Z,13.40
2022-10-11T17:08:32.623Z,13.38
2022-10-11T17:10:59.371Z,13.37
2022-10-11T17:13:26.486Z,13.31
2022-10-11T17:15:53.245Z,13.21
2022-10-11T17:18:19.865Z,13.05
2022-10-11T17:20:46.679Z,13.01
2022-10-11T17:23:13.383Z,13.04
2022-10-11T17:25:44.889Z,13.07
2022-10-11T17:28:12.426Z,13.09
2022-10-11T17:30:41.808Z,13.00
2022-10-11T17:33:09.164Z,13.02
2022-10-11T17:35:35.912Z,13.03
2022-10-11T17:38:06.176Z,13.06
2022-10-11T17:40:33.205Z,13.02
2022-10-11T17:42:59.927Z,12.97
2022-10-11T17:45:26.669Z,12.96
2022-10-11T17:47:53.268Z,12.94
2022-10-11T17:50:20.085Z,12.90
2022-10-11T17:52:46.734Z,12.88
2022-10-11T17:55:13.786Z,12.88
2022-10-11T17:57:40.584Z,12.84
2022-10-11T18:00:08.018Z,12.83
2022-10-11T18:02:34.677Z,12.81
2022-10-11T18:05:01.358Z,12.77
2022-10-11T18:07:27.961Z,12.72
2022-10-11T18:09:54.664Z,12.67
2022-10-11T18:12:21.322Z,12.61
2022-10-11T18:14:48.036Z,12.59
2022-10-11T18:17:14.667Z,12.51
2022-10-11T18:19:41.442Z,12.44
2022-10-11T18:22:08.375Z,12.37
2022-10-11T18:24:35.093Z,12.38
2022-10-11T18:27:02.239Z,12.40
2022-10-11T18:29:28.903Z,12.42
2022-10-11T18:31:55.604Z,12.48
2022-10-11T18:34:22.284Z,12.52
2022-10-11T18:36:48.931Z,12.52
2022-10-11T18:39:15.807Z,12.47
2022-10-11T18:41:44.657Z,12.50
2022-10-11T18:44:14.466Z,12.52
2022-10-11T18:46:41.655Z,12.53
2022-10-11T18:49:08.882Z,12.53
2022-10-11T18:51:41.257Z,12.49
2022-10-11T18:54:12.090Z,12.41
2022-10-11T18:56:40.756Z,12.39
2022-10-11T18:59:08.062Z,12.41
2022-10-11T19:01:38.332Z,12.45
2022-10-11T19:04:06.763Z,12.49
2022-10-11T19:06:40.061Z,12.51
2022-10-11T19:09:10.299Z,12.54
2022-10-11T19:11:37.871Z,12.54
2022-10-11T19:14:16.161Z,12.57
2022-10-11T19:16:46.326Z,12.58
2022-10-11T19:19:13.146Z,12.56
2022-10-11T19:21:40.219Z,12.56
2022-10-11T19:24:07.391Z,12.54
2022-10-11T19:26:36.751Z,12.56
2022-10-11T19:29:15.462Z,12.57
2022-10-11T19:31:48.641Z,12.54
2022-10-11T19:34:15.969Z,12.54
2022-10-11T19:36:42.936Z,12.52
2022-10-11T19:39:17.827Z,12.52
2022-10-11T19:41:44.549Z,12.48
2022-10-11T19:44:12.366Z,12.32
2022-10-11T19:46:54.877Z,12.28
2022-10-11T19:49:25.116Z,12.32
2022-10-11T19:51:53.825Z,12.35
2022-10-11T19:54:20.532Z,12.32
2022-10-11T19:56:47.829Z,12.35
2022-10-11T19:59:15.017Z,12.34
2022-10-11T20:01:42.253Z,12.36
2022-10-11T20:04:22.926Z,12.34
2022-10-11T20:06:58.111Z,12.27
2022-10-11T20:09:29.402Z,12.25
2022-10-11T20:11:56.564Z,12.30
2022-10-11T20:14:23.384Z,12.33
2022-10-11T20:16:50.861Z,12.36
2022-10-11T20:19:17.641Z,12.32
2022-10-11T20:21:45.176Z,12.33
2022-10-11T20:24:11.973Z,12.36
2022-10-11T20:26:39.399Z,12.37
2022-10-11T20:29:06.303Z,12.39
2022-10-11T20:31:38.190Z,12.33
2022-10-11T20:34:07.456Z,12.35
2022-10-11T20:36:36.136Z,12.36
2022-10-11T20:39:04.884Z,12.37
2022-10-11T20:41:34.702Z,12.40
2022-10-11T20:44:02.932Z,12.45
2022-10-11T20:46:35.166Z,12.48
2022-10-11T20:49:05.113Z,12.48
2022-10-11T20:51:33.775Z,12.42
2022-10-11T20:54:02.150Z,12.49
2022-10-11T20:56:29.993Z,12.52
2022-10-11T20:58:58.212Z,12.52
2022-10-11T21:01:28.480Z,12.52
2022-10-11T21:03:57.951Z,12.53
2022-10-11T21:06:25.124Z,12.56
2022-10-11T21:08:51.797Z,12.51
2022-10-11T21:11:18.416Z,12.46
2022-10-11T21:13:45.133Z,12.45
2022-10-11T21:16:16.223Z,12.50
2022-10-11T21:18:43.136Z,12.43
2022-10-11T21:21:14.503Z,12.34
2022-10-11T21:23:41.646Z,12.32
2022-10-11T21:26:10.297Z,12.28
2022-10-11T21:28:37.615Z,12.27
2022-10-11T21:31:09.958Z,12.26
2022-10-11T21:33:37.238Z,12.28
2022-10-11T21:36:08.952Z,12.26
2022-10-11T21:38:36.547Z,12.30
2022-10-11T21:41:11.608Z,12.28
2022-10-11T21:43:38.631Z,12.25
2022-10-11T21:46:14.268Z,12.24
2022-10-11T21:48:41.000Z,12.25
2022-10-11T21:53:39.120Z,12.28
2022-10-11T21:56:05.972Z,12.24
2022-10-11T21:58:32.618Z,12.23
2022-10-11T22:00:59.721Z,12.17
2022-10-11T22:03:26.988Z,12.16
2022-10-11T22:05:53.663Z,12.16
2022-10-11T22:08:20.476Z,12.08
2022-10-11T22:10:54.463Z,12.04
2022-10-11T22:13:21.144Z,12.07
2022-10-11T22:15:47.932Z,12.03
2022-10-11T22:18:14.605Z,12.07
2022-10-11T22:20:41.471Z,12.01
2022-10-11T22:23:08.235Z,11.99
2022-10-11T22:25:36.105Z,12.04
2022-10-11T22:28:03.592Z,12.12
2022-10-11T22:30:31.014Z,12.17
2022-10-11T22:32:57.804Z,12.11
2022-10-11T22:35:24.676Z,12.12
2022-10-11T22:37:51.927Z,12.03
2022-10-11T22:40:19.689Z,11.96
2022-10-11T22:42:46.440Z,11.99
2022-10-11T22:45:13.114Z,12.00
2022-10-11T22:47:39.796Z,12.04
2022-10-11T22:50:06.698Z,12.06
2022-10-11T22:52:33.367Z,12.05
2022-10-11T22:55:00.041Z,12.06
2022-10-11T22:57:26.680Z,12.02
2022-10-11T22:59:53.354Z,12.01
2022-10-11T23:02:20.027Z,12.00
2022-10-11T23:04:46.720Z,12.03
2022-10-11T23:07:13.372Z,12.05
2022-10-11T23:09:40.003Z,12.06
2022-10-11T23:12:07.043Z,12.10
2022-10-11T23:14:33.669Z,12.11
2022-10-11T23:17:00.330Z,12.04
2022-10-11T23:19:27.014Z,12.03
2022-10-11T23:21:53.695Z,12.03
2022-10-11T23:24:20.412Z,12.07
2022-10-11T23:26:47.148Z,12.10
2022-10-11T23:29:13.815Z,12.08
2022-10-11T23:31:40.447Z,12.07
2022-10-11T23:34:07.356Z,12.10
2022-10-11T23:36:34.076Z,12.05
2022-10-11T23:39:00.759Z,12.06
2022-10-11T23:41:29.127Z,12.09
2022-10-11T23:43:56.173Z,12.04
2022-10-11T23:46:23.285Z,11.95
2022-10-11T23:48:50.060Z,11.98
2022-10-11T23:51:16.739Z,12.00
2022-10-11T23:53:43.524Z,12.02
2022-10-11T23:56:11.317Z,12.05
2022-10-11T23:58:38.220Z,12.05
